sensor_id;sensor_type;location;lat;lon;timestamp;P1;durP1;ratioP1;P2;durP2;ratioP2
28266;SDS011;15525;45.568;5.448;2023-05-24T00:00:27;21.25;;;13.40;;
28266;SDS011;15525;45.568;5.448;2023-05-24T00:02:52;18.55;;;13.25;;
28266;SDS011;15525;45.568;5.448;2023-05-24T00:05:18;21.40;;;13.30;;
28266;SDS011;15525;45.568;5.448;2023-05-24T00:07:43;21.05;;;13.48;;
28266;SDS011;15525;45.568;5.448;2023-05-24T00:10:09;18.27;;;13.13;;
28266;SDS011;15525;45.568;5.448;2023-05-24T00:12:35;20.58;;;12.90;;
28266;SDS011;15525;45.568;5.448;2023-05-24T00:15:00;19.45;;;12.88;;
28266;SDS011;15525;45.568;5.448;2023-05-24T00:17:26;21.42;;;12.55;;
28266;SDS011;15525;45.568;5.448;2023-05-24T00:19:54;19.33;;;12.98;;
28266;SDS011;15525;45.568;5.448;2023-05-24T00:22:19;21.77;;;13.45;;
28266;SDS011;15525;45.568;5.448;2023-05-24T00:24:45;21.50;;;14.15;;
28266;SDS011;15525;45.568;5.448;2023-05-24T00:27:12;20.60;;;13.75;;
28266;SDS011;15525;45.568;5.448;2023-05-24T00:29:38;20.38;;;13.93;;
28266;SDS011;15525;45.568;5.448;2023-05-24T00:32:03;20.30;;;13.95;;
28266;SDS011;15525;45.568;5.448;2023-05-24T00:34:29;20.40;;;13.45;;
28266;SDS011;15525;45.568;5.448;2023-05-24T00:36:54;22.45;;;14.07;;
28266;SDS011;15525;45.568;5.448;2023-05-24T00:39:21;18.92;;;13.63;;
28266;SDS011;15525;45.568;5.448;2023-05-24T00:41:47;21.02;;;13.13;;
28266;SDS011;15525;45.568;5.448;2023-05-24T00:44:12;19.02;;;13.40;;
28266;SDS011;15525;45.568;5.448;2023-05-24T00:46:38;18.05;;;12.80;;
28266;SDS011;15525;45.568;5.448;2023-05-24T00:49:03;20.05;;;13.00;;
28266;SDS011;15525;45.568;5.448;2023-05-24T00:51:29;19.50;;;12.82;;
28266;SDS011;15525;45.568;5.448;2023-05-24T00:53:56;22.10;;;13.63;;
28266;SDS011;15525;45.568;5.448;2023-05-24T00:56:22;21.08;;;12.85;;
28266;SDS011;15525;45.568;5.448;2023-05-24T00:58:48;18.92;;;13.32;;
28266;SDS011;15525;45.568;5.448;2023-05-24T01:01:18;20.60;;;13.40;;
28266;SDS011;15525;45.568;5.448;2023-05-24T01:03:43;19.23;;;12.75;;
28266;SDS011;15525;45.568;5.448;2023-05-24T01:06:10;17.02;;;11.88;;
28266;SDS011;15525;45.568;5.448;2023-05-24T01:17:13;15.88;;;11.85;;
28266;SDS011;15525;45.568;5.448;2023-05-24T01:28:07;16.25;;;11.40;;
28266;SDS011;15525;45.568;5.448;2023-05-24T01:30:33;16.50;;;11.35;;
28266;SDS011;15525;45.568;5.448;2023-05-24T01:33:00;15.15;;;10.65;;
28266;SDS011;15525;45.568;5.448;2023-05-24T01:35:26;18.63;;;11.88;;
28266;SDS011;15525;45.568;5.448;2023-05-24T01:37:51;18.45;;;11.50;;
28266;SDS011;15525;45.568;5.448;2023-05-24T01:40:17;14.15;;;10.80;;
28266;SDS011;15525;45.568;5.448;2023-05-24T01:42:55;16.02;;;11.55;;
28266;SDS011;15525;45.568;5.448;2023-05-24T01:45:38;17.27;;;11.85;;
28266;SDS011;15525;45.568;5.448;2023-05-24T01:48:26;16.02;;;11.05;;
28266;SDS011;15525;45.568;5.448;2023-05-24T01:51:15;16.38;;;11.52;;
28266;SDS011;15525;45.568;5.448;2023-05-24T01:53:45;15.48;;;11.23;;
28266;SDS011;15525;45.568;5.448;2023-05-24T01:56:14;16.13;;;10.38;;
28266;SDS011;15525;45.568;5.448;2023-05-24T01:58:42;15.85;;;10.82;;
28266;SDS011;15525;45.568;5.448;2023-05-24T02:01:09;12.05;;;9.35;;
28266;SDS011;15525;45.568;5.448;2023-05-24T02:03:37;14.38;;;10.63;;
28266;SDS011;15525;45.568;5.448;2023-05-24T02:06:03;15.32;;;10.25;;
28266;SDS011;15525;45.568;5.448;2023-05-24T02:08:29;14.05;;;10.18;;
28266;SDS011;15525;45.568;5.448;2023-05-24T02:10:54;17.15;;;10.70;;
28266;SDS011;15525;45.568;5.448;2023-05-24T02:13:20;14.90;;;10.48;;
28266;SDS011;15525;45.568;5.448;2023-05-24T02:15:45;17.20;;;10.85;;
28266;SDS011;15525;45.568;5.448;2023-05-24T02:18:11;19.42;;;11.60;;
28266;SDS011;15525;45.568;5.448;2023-05-24T02:20:38;16.65;;;11.32;;
28266;SDS011;15525;45.568;5.448;2023-05-24T02:23:04;18.00;;;11.02;;
28266;SDS011;15525;45.568;5.448;2023-05-24T02:25:30;14.48;;;10.45;;
28266;SDS011;15525;45.568;5.448;2023-05-24T02:27:56;14.82;;;10.57;;
28266;SDS011;15525;45.568;5.448;2023-05-24T02:30:22;15.85;;;11.05;;
28266;SDS011;15525;45.568;5.448;2023-05-24T02:32:48;18.00;;;11.00;;
28266;SDS011;15525;45.568;5.448;2023-05-24T02:35:13;17.15;;;11.57;;
28266;SDS011;15525;45.568;5.448;2023-05-24T02:37:39;16.92;;;11.40;;
28266;SDS011;15525;45.568;5.448;2023-05-24T02:40:05;17.35;;;11.60;;
28266;SDS011;15525;45.568;5.448;2023-05-24T02:42:31;16.50;;;12.00;;
28266;SDS011;15525;45.568;5.448;2023-05-24T02:44:56;17.75;;;11.35;;
28266;SDS011;15525;45.568;5.448;2023-05-24T02:47:21;18.60;;;10.93;;
28266;SDS011;15525;45.568;5.448;2023-05-24T02:49:47;16.67;;;11.95;;
28266;SDS011;15525;45.568;5.448;2023-05-24T02:52:12;16.10;;;11.68;;
28266;SDS011;15525;45.568;5.448;2023-05-24T02:54:38;16.85;;;11.98;;
28266;SDS011;15525;45.568;5.448;2023-05-24T02:57:04;16.77;;;11.48;;
28266;SDS011;15525;45.568;5.448;2023-05-24T02:59:30;17.50;;;11.57;;
28266;SDS011;15525;45.568;5.448;2023-05-24T03:01:57;18.00;;;12.35;;
28266;SDS011;15525;45.568;5.448;2023-05-24T03:04:23;15.82;;;12.02;;
28266;SDS011;15525;45.568;5.448;2023-05-24T03:06:48;20.25;;;12.05;;
28266;SDS011;15525;45.568;5.448;2023-05-24T03:09:13;18.50;;;12.02;;
28266;SDS011;15525;45.568;5.448;2023-05-24T03:11:40;17.60;;;11.63;;
28266;SDS011;15525;45.568;5.448;2023-05-24T03:14:06;19.30;;;12.05;;
28266;SDS011;15525;45.568;5.448;2023-05-24T03:16:34;18.58;;;11.57;;
28266;SDS011;15525;45.568;5.448;2023-05-24T03:18:59;17.00;;;11.45;;
28266;SDS011;15525;45.568;5.448;2023-05-24T03:21:25;17.83;;;11.63;;
28266;SDS011;15525;45.568;5.448;2023-05-24T03:23:51;17.08;;;12.15;;
28266;SDS011;15525;45.568;5.448;2023-05-24T03:26:16;18.60;;;12.50;;
28266;SDS011;15525;45.568;5.448;2023-05-24T03:28:45;20.45;;;12.40;;
28266;SDS011;15525;45.568;5.448;2023-05-24T03:31:11;21.20;;;11.90;;
28266;SDS011;15525;45.568;5.448;2023-05-24T03:33:37;19.35;;;12.43;;
28266;SDS011;15525;45.568;5.448;2023-05-24T03:36:03;17.85;;;11.60;;
28266;SDS011;15525;45.568;5.448;2023-05-24T03:38:29;17.25;;;11.20;;
28266;SDS011;15525;45.568;5.448;2023-05-24T03:40:56;17.83;;;12.45;;
28266;SDS011;15525;45.568;5.448;2023-05-24T03:43:22;19.45;;;12.43;;
28266;SDS011;15525;45.568;5.448;2023-05-24T03:45:47;19.08;;;12.40;;
28266;SDS011;15525;45.568;5.448;2023-05-24T03:48:13;21.45;;;11.82;;
28266;SDS011;15525;45.568;5.448;2023-05-24T03:50:38;20.00;;;12.55;;
28266;SDS011;15525;45.568;5.448;2023-05-24T03:53:04;18.33;;;11.68;;
28266;SDS011;15525;45.568;5.448;2023-05-24T03:55:29;21.25;;;13.00;;
28266;SDS011;15525;45.568;5.448;2023-05-24T03:57:55;16.67;;;12.30;;
28266;SDS011;15525;45.568;5.448;2023-05-24T04:00:20;19.02;;;12.48;;
28266;SDS011;15525;45.568;5.448;2023-05-24T04:02:45;22.55;;;12.65;;
28266;SDS011;15525;45.568;5.448;2023-05-24T04:05:12;20.17;;;13.50;;
28266;SDS011;15525;45.568;5.448;2023-05-24T04:07:37;19.38;;;12.40;;
28266;SDS011;15525;45.568;5.448;2023-05-24T04:10:07;19.08;;;13.02;;
28266;SDS011;15525;45.568;5.448;2023-05-24T04:12:33;19.90;;;13.13;;
28266;SDS011;15525;45.568;5.448;2023-05-24T04:14:59;20.42;;;13.45;;
28266;SDS011;15525;45.568;5.448;2023-05-24T04:17:25;22.15;;;12.70;;
28266;SDS011;15525;45.568;5.448;2023-05-24T04:19:51;22.33;;;13.48;;
28266;SDS011;15525;45.568;5.448;2023-05-24T04:22:17;20.35;;;13.90;;
28266;SDS011;15525;45.568;5.448;2023-05-24T04:24:45;20.55;;;13.82;;
28266;SDS011;15525;45.568;5.448;2023-05-24T04:27:11;20.98;;;13.85;;
28266;SDS011;15525;45.568;5.448;2023-05-24T04:29:38;21.23;;;13.52;;
28266;SDS011;15525;45.568;5.448;2023-05-24T04:32:04;26.08;;;14.25;;
28266;SDS011;15525;45.568;5.448;2023-05-24T04:34:30;19.73;;;13.57;;
28266;SDS011;15525;45.568;5.448;2023-05-24T04:36:59;21.55;;;14.23;;
28266;SDS011;15525;45.568;5.448;2023-05-24T04:39:26;20.80;;;13.70;;
28266;SDS011;15525;45.568;5.448;2023-05-24T04:41:52;21.35;;;14.15;;
28266;SDS011;15525;45.568;5.448;2023-05-24T04:44:19;23.17;;;15.15;;
28266;SDS011;15525;45.568;5.448;2023-05-24T04:46:44;23.90;;;14.05;;
28266;SDS011;15525;45.568;5.448;2023-05-24T04:49:09;21.17;;;14.02;;
28266;SDS011;15525;45.568;5.448;2023-05-24T04:51:35;20.85;;;13.77;;
28266;SDS011;15525;45.568;5.448;2023-05-24T04:54:03;19.70;;;13.38;;
28266;SDS011;15525;45.568;5.448;2023-05-24T04:56:33;20.63;;;14.05;;
28266;SDS011;15525;45.568;5.448;2023-05-24T04:58:59;24.95;;;14.80;;
28266;SDS011;15525;45.568;5.448;2023-05-24T05:01:24;25.23;;;14.88;;
28266;SDS011;15525;45.568;5.448;2023-05-24T05:03:50;21.88;;;13.90;;
28266;SDS011;15525;45.568;5.448;2023-05-24T05:06:15;22.88;;;14.40;;
28266;SDS011;15525;45.568;5.448;2023-05-24T05:08:40;22.13;;;14.13;;
28266;SDS011;15525;45.568;5.448;2023-05-24T05:11:06;22.30;;;14.43;;
28266;SDS011;15525;45.568;5.448;2023-05-24T05:13:32;20.58;;;13.48;;
28266;SDS011;15525;45.568;5.448;2023-05-24T05:15:57;23.10;;;14.60;;
28266;SDS011;15525;45.568;5.448;2023-05-24T05:18:23;24.30;;;15.02;;
28266;SDS011;15525;45.568;5.448;2023-05-24T05:20:48;25.33;;;14.98;;
28266;SDS011;15525;45.568;5.448;2023-05-24T05:23:13;22.23;;;14.82;;
28266;SDS011;15525;45.568;5.448;2023-05-24T05:25:39;22.88;;;14.80;;
28266;SDS011;15525;45.568;5.448;2023-05-24T05:28:04;24.77;;;14.63;;
28266;SDS011;15525;45.568;5.448;2023-05-24T05:30:30;20.67;;;14.52;;
28266;SDS011;15525;45.568;5.448;2023-05-24T05:32:55;25.10;;;14.88;;
28266;SDS011;15525;45.568;5.448;2023-05-24T05:35:20;22.45;;;14.65;;
28266;SDS011;15525;45.568;5.448;2023-05-24T05:37:46;29.23;;;16.00;;
28266;SDS011;15525;45.568;5.448;2023-05-24T05:40:11;26.42;;;14.75;;
28266;SDS011;15525;45.568;5.448;2023-05-24T05:42:37;30.20;;;15.32;;
28266;SDS011;15525;45.568;5.448;2023-05-24T05:45:02;29.73;;;15.63;;
28266;SDS011;15525;45.568;5.448;2023-05-24T05:47:28;34.45;;;15.98;;
28266;SDS011;15525;45.568;5.448;2023-05-24T05:49:53;32.63;;;15.77;;
28266;SDS011;15525;45.568;5.448;2023-05-24T05:52:18;33.25;;;15.35;;
28266;SDS011;15525;45.568;5.448;2023-05-24T05:54:44;26.20;;;15.85;;
28266;SDS011;15525;45.568;5.448;2023-05-24T05:57:10;24.10;;;15.55;;
28266;SDS011;15525;45.568;5.448;2023-05-24T05:59:35;24.23;;;15.65;;
28266;SDS011;15525;45.568;5.448;2023-05-24T06:02:02;25.48;;;15.65;;
28266;SDS011;15525;45.568;5.448;2023-05-24T06:04:29;24.13;;;14.98;;
28266;SDS011;15525;45.568;5.448;2023-05-24T06:06:55;24.63;;;15.98;;
28266;SDS011;15525;45.568;5.448;2023-05-24T06:09:21;27.77;;;16.52;;
28266;SDS011;15525;45.568;5.448;2023-05-24T06:11:46;27.60;;;16.13;;
28266;SDS011;15525;45.568;5.448;2023-05-24T06:14:12;22.88;;;15.40;;
28266;SDS011;15525;45.568;5.448;2023-05-24T06:16:43;25.20;;;16.13;;
28266;SDS011;15525;45.568;5.448;2023-05-24T06:19:10;22.73;;;15.15;;
28266;SDS011;15525;45.568;5.448;2023-05-24T06:21:36;25.77;;;15.60;;
28266;SDS011;15525;45.568;5.448;2023-05-24T06:24:02;27.02;;;15.48;;
28266;SDS011;15525;45.568;5.448;2023-05-24T06:26:28;31.38;;;16.60;;
28266;SDS011;15525;45.568;5.448;2023-05-24T06:28:54;23.90;;;15.45;;
28266;SDS011;15525;45.568;5.448;2023-05-24T06:31:19;28.42;;;16.38;;
28266;SDS011;15525;45.568;5.448;2023-05-24T06:33:45;25.50;;;15.43;;
28266;SDS011;15525;45.568;5.448;2023-05-24T06:36:10;26.60;;;15.68;;
28266;SDS011;15525;45.568;5.448;2023-05-24T06:38:36;25.35;;;15.85;;
28266;SDS011;15525;45.568;5.448;2023-05-24T06:41:02;24.48;;;15.25;;
28266;SDS011;15525;45.568;5.448;2023-05-24T06:43:27;23.50;;;15.32;;
28266;SDS011;15525;45.568;5.448;2023-05-24T06:45:53;26.00;;;15.07;;
28266;SDS011;15525;45.568;5.448;2023-05-24T06:48:18;23.67;;;14.68;;
28266;SDS011;15525;45.568;5.448;2023-05-24T06:50:43;25.30;;;15.98;;
28266;SDS011;15525;45.568;5.448;2023-05-24T06:53:10;25.13;;;15.50;;
28266;SDS011;15525;45.568;5.448;2023-05-24T06:55:35;26.27;;;16.10;;
28266;SDS011;15525;45.568;5.448;2023-05-24T06:58:01;26.98;;;16.55;;
28266;SDS011;15525;45.568;5.448;2023-05-24T07:00:26;27.42;;;16.90;;
28266;SDS011;15525;45.568;5.448;2023-05-24T07:02:52;27.63;;;17.08;;
28266;SDS011;15525;45.568;5.448;2023-05-24T07:05:17;28.42;;;16.35;;
28266;SDS011;15525;45.568;5.448;2023-05-24T07:07:44;26.67;;;16.48;;
28266;SDS011;15525;45.568;5.448;2023-05-24T07:10:10;26.48;;;16.60;;
28266;SDS011;15525;45.568;5.448;2023-05-24T07:12:36;28.10;;;15.95;;
28266;SDS011;15525;45.568;5.448;2023-05-24T07:15:05;27.95;;;16.95;;
28266;SDS011;15525;45.568;5.448;2023-05-24T07:17:31;28.48;;;17.17;;
28266;SDS011;15525;45.568;5.448;2023-05-24T07:19:57;27.85;;;16.90;;
28266;SDS011;15525;45.568;5.448;2023-05-24T07:22:23;25.77;;;16.48;;
28266;SDS011;15525;45.568;5.448;2023-05-24T07:24:49;28.05;;;16.48;;
28266;SDS011;15525;45.568;5.448;2023-05-24T07:27:15;27.80;;;18.02;;
28266;SDS011;15525;45.568;5.448;2023-05-24T07:29:41;33.08;;;17.45;;
28266;SDS011;15525;45.568;5.448;2023-05-24T07:32:06;27.48;;;16.50;;
28266;SDS011;15525;45.568;5.448;2023-05-24T07:34:32;25.42;;;16.73;;
28266;SDS011;15525;45.568;5.448;2023-05-24T07:36:59;27.80;;;17.27;;
28266;SDS011;15525;45.568;5.448;2023-05-24T07:39:25;27.98;;;17.38;;
28266;SDS011;15525;45.568;5.448;2023-05-24T07:41:52;27.75;;;17.02;;
28266;SDS011;15525;45.568;5.448;2023-05-24T07:44:18;27.05;;;16.70;;
28266;SDS011;15525;45.568;5.448;2023-05-24T07:46:44;27.50;;;17.20;;
28266;SDS011;15525;45.568;5.448;2023-05-24T07:49:09;28.83;;;17.05;;
28266;SDS011;15525;45.568;5.448;2023-05-24T07:51:35;27.80;;;16.27;;
28266;SDS011;15525;45.568;5.448;2023-05-24T07:54:01;28.17;;;17.00;;
28266;SDS011;15525;45.568;5.448;2023-05-24T07:56:26;30.35;;;18.90;;
28266;SDS011;15525;45.568;5.448;2023-05-24T07:58:51;29.33;;;18.17;;
28266;SDS011;15525;45.568;5.448;2023-05-24T08:01:20;34.47;;;19.10;;
28266;SDS011;15525;45.568;5.448;2023-05-24T08:03:46;29.83;;;16.88;;
28266;SDS011;15525;45.568;5.448;2023-05-24T08:06:12;31.58;;;18.70;;
28266;SDS011;15525;45.568;5.448;2023-05-24T08:08:38;30.25;;;17.65;;
28266;SDS011;15525;45.568;5.448;2023-05-24T08:11:05;32.17;;;18.17;;
28266;SDS011;15525;45.568;5.448;2023-05-24T08:13:32;31.20;;;18.13;;
28266;SDS011;15525;45.568;5.448;2023-05-24T08:15:58;32.25;;;18.63;;
28266;SDS011;15525;45.568;5.448;2023-05-24T08:18:23;28.83;;;18.20;;
28266;SDS011;15525;45.568;5.448;2023-05-24T08:20:48;29.73;;;17.98;;
28266;SDS011;15525;45.568;5.448;2023-05-24T08:23:14;27.95;;;18.20;;
28266;SDS011;15525;45.568;5.448;2023-05-24T08:25:40;29.00;;;17.60;;
28266;SDS011;15525;45.568;5.448;2023-05-24T08:28:05;29.80;;;18.42;;
28266;SDS011;15525;45.568;5.448;2023-05-24T08:30:30;28.50;;;17.17;;
28266;SDS011;15525;45.568;5.448;2023-05-24T08:32:56;29.75;;;18.45;;
28266;SDS011;15525;45.568;5.448;2023-05-24T08:35:22;30.63;;;18.83;;
28266;SDS011;15525;45.568;5.448;2023-05-24T08:37:48;29.63;;;18.23;;
28266;SDS011;15525;45.568;5.448;2023-05-24T08:40:14;32.83;;;19.00;;
28266;SDS011;15525;45.568;5.448;2023-05-24T08:42:39;36.05;;;20.52;;
28266;SDS011;15525;45.568;5.448;2023-05-24T08:45:11;30.35;;;19.58;;
28266;SDS011;15525;45.568;5.448;2023-05-24T08:47:39;33.17;;;20.42;;
28266;SDS011;15525;45.568;5.448;2023-05-24T08:50:05;32.50;;;20.58;;
28266;SDS011;15525;45.568;5.448;2023-05-24T08:52:32;32.17;;;20.77;;
28266;SDS011;15525;45.568;5.448;2023-05-24T08:54:58;32.95;;;20.23;;
28266;SDS011;15525;45.568;5.448;2023-05-24T08:57:27;34.90;;;19.95;;
28266;SDS011;15525;45.568;5.448;2023-05-24T08:59:54;36.83;;;21.38;;
28266;SDS011;15525;45.568;5.448;2023-05-24T09:02:20;34.60;;;19.65;;
28266;SDS011;15525;45.568;5.448;2023-05-24T09:04:47;34.88;;;19.30;;
28266;SDS011;15525;45.568;5.448;2023-05-24T09:07:16;36.25;;;21.08;;
28266;SDS011;15525;45.568;5.448;2023-05-24T09:09:45;34.28;;;19.95;;
28266;SDS011;15525;45.568;5.448;2023-05-24T09:12:14;35.35;;;20.42;;
28266;SDS011;15525;45.568;5.448;2023-05-24T09:14:44;33.70;;;19.63;;
28266;SDS011;15525;45.568;5.448;2023-05-24T09:17:11;32.55;;;19.40;;
28266;SDS011;15525;45.568;5.448;2023-05-24T09:19:39;35.08;;;19.73;;
28266;SDS011;15525;45.568;5.448;2023-05-24T09:22:08;36.35;;;20.17;;
28266;SDS011;15525;45.568;5.448;2023-05-24T09:24:41;37.90;;;19.50;;
28266;SDS011;15525;45.568;5.448;2023-05-24T09:27:07;36.53;;;20.23;;
28266;SDS011;15525;45.568;5.448;2023-05-24T09:29:36;38.63;;;21.23;;
28266;SDS011;15525;45.568;5.448;2023-05-24T09:32:02;40.58;;;21.17;;
28266;SDS011;15525;45.568;5.448;2023-05-24T09:34:41;42.38;;;21.60;;
28266;SDS011;15525;45.568;5.448;2023-05-24T09:37:09;40.72;;;21.40;;
28266;SDS011;15525;45.568;5.448;2023-05-24T09:39:38;39.55;;;19.63;;
28266;SDS011;15525;45.568;5.448;2023-05-24T09:42:06;35.88;;;18.67;;
28266;SDS011;15525;45.568;5.448;2023-05-24T09:44:31;34.83;;;18.27;;
28266;SDS011;15525;45.568;5.448;2023-05-24T09:47:01;30.50;;;18.13;;
28266;SDS011;15525;45.568;5.448;2023-05-24T09:49:31;29.25;;;17.45;;
28266;SDS011;15525;45.568;5.448;2023-05-24T09:51:57;33.53;;;18.55;;
28266;SDS011;15525;45.568;5.448;2023-05-24T09:54:23;32.10;;;17.95;;
28266;SDS011;15525;45.568;5.448;2023-05-24T09:56:51;29.42;;;17.73;;
28266;SDS011;15525;45.568;5.448;2023-05-24T09:59:16;32.08;;;18.15;;
28266;SDS011;15525;45.568;5.448;2023-05-24T10:01:42;31.10;;;18.48;;
28266;SDS011;15525;45.568;5.448;2023-05-24T10:04:08;30.25;;;17.55;;
28266;SDS011;15525;45.568;5.448;2023-05-24T10:06:34;34.38;;;18.60;;
28266;SDS011;15525;45.568;5.448;2023-05-24T10:09:03;31.40;;;17.85;;
28266;SDS011;15525;45.568;5.448;2023-05-24T10:11:34;28.20;;;17.67;;
28266;SDS011;15525;45.568;5.448;2023-05-24T10:14:02;29.15;;;17.65;;
28266;SDS011;15525;45.568;5.448;2023-05-24T10:16:28;27.92;;;17.90;;
28266;SDS011;15525;45.568;5.448;2023-05-24T10:18:54;28.58;;;18.15;;
28266;SDS011;15525;45.568;5.448;2023-05-24T10:21:20;31.40;;;18.58;;
28266;SDS011;15525;45.568;5.448;2023-05-24T10:23:49;29.15;;;18.13;;
28266;SDS011;15525;45.568;5.448;2023-05-24T10:26:22;29.52;;;18.23;;
28266;SDS011;15525;45.568;5.448;2023-05-24T10:28:51;30.88;;;18.35;;
28266;SDS011;15525;45.568;5.448;2023-05-24T10:31:23;27.38;;;18.08;;
28266;SDS011;15525;45.568;5.448;2023-05-24T10:33:52;30.00;;;18.00;;
28266;SDS011;15525;45.568;5.448;2023-05-24T10:36:22;28.75;;;18.05;;
28266;SDS011;15525;45.568;5.448;2023-05-24T10:38:50;29.90;;;18.70;;
28266;SDS011;15525;45.568;5.448;2023-05-24T10:41:16;31.40;;;18.83;;
28266;SDS011;15525;45.568;5.448;2023-05-24T10:43:44;28.02;;;18.70;;
28266;SDS011;15525;45.568;5.448;2023-05-24T10:46:10;29.67;;;18.67;;
28266;SDS011;15525;45.568;5.448;2023-05-24T10:48:40;25.70;;;18.00;;
28266;SDS011;15525;45.568;5.448;2023-05-24T10:54:09;28.20;;;18.23;;
28266;SDS011;15525;45.568;5.448;2023-05-24T10:56:39;26.67;;;17.65;;
28266;SDS011;15525;45.568;5.448;2023-05-24T10:59:07;25.13;;;17.27;;
28266;SDS011;15525;45.568;5.448;2023-05-24T11:01:33;26.75;;;17.25;;
28266;SDS011;15525;45.568;5.448;2023-05-24T11:04:08;26.42;;;17.25;;
28266;SDS011;15525;45.568;5.448;2023-05-24T11:06:46;24.55;;;16.52;;
28266;SDS011;15525;45.568;5.448;2023-05-24T11:09:33;25.98;;;17.05;;
28266;SDS011;15525;45.568;5.448;2023-05-24T11:12:05;26.70;;;17.08;;
28266;SDS011;15525;45.568;5.448;2023-05-24T11:14:33;25.00;;;17.30;;
28266;SDS011;15525;45.568;5.448;2023-05-24T11:17:01;25.02;;;17.10;;
28266;SDS011;15525;45.568;5.448;2023-05-24T11:19:29;26.58;;;17.50;;
28266;SDS011;15525;45.568;5.448;2023-05-24T11:22:00;24.70;;;17.38;;
28266;SDS011;15525;45.568;5.448;2023-05-24T11:24:28;26.08;;;16.63;;
28266;SDS011;15525;45.568;5.448;2023-05-24T11:26:54;25.40;;;16.30;;
28266;SDS011;15525;45.568;5.448;2023-05-24T11:29:21;24.63;;;16.52;;
28266;SDS011;15525;45.568;5.448;2023-05-24T11:31:49;24.38;;;16.00;;
28266;SDS011;15525;45.568;5.448;2023-05-24T11:34:33;25.70;;;16.25;;
28266;SDS011;15525;45.568;5.448;2023-05-24T11:36:59;23.67;;;15.55;;
28266;SDS011;15525;45.568;5.448;2023-05-24T11:39:29;25.63;;;16.60;;
28266;SDS011;15525;45.568;5.448;2023-05-24T11:41:59;25.95;;;17.40;;
28266;SDS011;15525;45.568;5.448;2023-05-24T11:44:28;23.13;;;15.85;;
28266;SDS011;15525;45.568;5.448;2023-05-24T11:46:59;21.90;;;15.40;;
28266;SDS011;15525;45.568;5.448;2023-05-24T11:49:26;24.05;;;15.45;;
28266;SDS011;15525;45.568;5.448;2023-05-24T11:51:53;24.95;;;16.42;;
28266;SDS011;15525;45.568;5.448;2023-05-24T11:54:20;22.92;;;16.02;;
28266;SDS011;15525;45.568;5.448;2023-05-24T11:56:46;22.35;;;15.68;;
28266;SDS011;15525;45.568;5.448;2023-05-24T12:01:46;24.58;;;16.15;;
28266;SDS011;15525;45.568;5.448;2023-05-24T12:04:11;26.45;;;16.98;;
28266;SDS011;15525;45.568;5.448;2023-05-24T12:06:41;25.17;;;17.10;;
28266;SDS011;15525;45.568;5.448;2023-05-24T12:09:08;24.02;;;17.45;;
28266;SDS011;15525;45.568;5.448;2023-05-24T12:11:37;24.40;;;16.80;;
28266;SDS011;15525;45.568;5.448;2023-05-24T12:14:05;24.45;;;16.35;;
28266;SDS011;15525;45.568;5.448;2023-05-24T12:16:31;26.13;;;16.27;;
28266;SDS011;15525;45.568;5.448;2023-05-24T12:18:57;22.88;;;15.93;;
28266;SDS011;15525;45.568;5.448;2023-05-24T12:21:23;22.40;;;15.35;;
28266;SDS011;15525;45.568;5.448;2023-05-24T12:23:49;23.15;;;15.88;;
28266;SDS011;15525;45.568;5.448;2023-05-24T12:26:16;20.88;;;14.63;;
28266;SDS011;15525;45.568;5.448;2023-05-24T12:28:44;20.38;;;15.13;;
28266;SDS011;15525;45.568;5.448;2023-05-24T12:31:09;22.17;;;15.43;;
28266;SDS011;15525;45.568;5.448;2023-05-24T12:33:35;22.85;;;15.50;;
28266;SDS011;15525;45.568;5.448;2023-05-24T12:36:01;21.55;;;15.10;;
28266;SDS011;15525;45.568;5.448;2023-05-24T12:38:26;21.98;;;15.25;;
28266;SDS011;15525;45.568;5.448;2023-05-24T12:40:52;22.73;;;15.05;;
28266;SDS011;15525;45.568;5.448;2023-05-24T12:43:18;21.17;;;15.23;;
28266;SDS011;15525;45.568;5.448;2023-05-24T12:45:45;23.00;;;15.93;;
28266;SDS011;15525;45.568;5.448;2023-05-24T12:48:11;21.65;;;14.55;;
28266;SDS011;15525;45.568;5.448;2023-05-24T12:50:36;19.55;;;14.73;;
28266;SDS011;15525;45.568;5.448;2023-05-24T12:53:02;25.23;;;16.70;;
28266;SDS011;15525;45.568;5.448;2023-05-24T12:55:28;21.45;;;15.68;;
28266;SDS011;15525;45.568;5.448;2023-05-24T12:57:54;21.95;;;14.60;;
28266;SDS011;15525;45.568;5.448;2023-05-24T13:00:21;20.50;;;14.70;;
28266;SDS011;15525;45.568;5.448;2023-05-24T13:02:48;19.85;;;14.35;;
28266;SDS011;15525;45.568;5.448;2023-05-24T13:05:16;18.10;;;14.48;;
28266;SDS011;15525;45.568;5.448;2023-05-24T13:07:43;18.65;;;14.23;;
28266;SDS011;15525;45.568;5.448;2023-05-24T13:10:09;20.02;;;14.68;;
28266;SDS011;15525;45.568;5.448;2023-05-24T13:12:35;20.33;;;14.43;;
28266;SDS011;15525;45.568;5.448;2023-05-24T13:15:00;20.10;;;14.35;;
28266;SDS011;15525;45.568;5.448;2023-05-24T13:17:26;22.33;;;13.55;;
28266;SDS011;15525;45.568;5.448;2023-05-24T13:19:52;19.33;;;14.13;;
28266;SDS011;15525;45.568;5.448;2023-05-24T13:22:17;17.65;;;13.77;;
28266;SDS011;15525;45.568;5.448;2023-05-24T13:24:44;18.75;;;13.98;;
28266;SDS011;15525;45.568;5.448;2023-05-24T13:27:09;21.20;;;14.27;;
28266;SDS011;15525;45.568;5.448;2023-05-24T13:29:34;17.45;;;13.43;;
28266;SDS011;15525;45.568;5.448;2023-05-24T13:32:00;21.25;;;13.77;;
28266;SDS011;15525;45.568;5.448;2023-05-24T13:34:26;18.85;;;12.77;;
28266;SDS011;15525;45.568;5.448;2023-05-24T13:36:52;19.38;;;13.57;;
28266;SDS011;15525;45.568;5.448;2023-05-24T13:39:18;19.23;;;12.98;;
28266;SDS011;15525;45.568;5.448;2023-05-24T13:41:45;15.93;;;12.77;;
28266;SDS011;15525;45.568;5.448;2023-05-24T13:44:13;19.77;;;12.77;;
28266;SDS011;15525;45.568;5.448;2023-05-24T13:46:40;17.73;;;13.25;;
28266;SDS011;15525;45.568;5.448;2023-05-24T13:49:06;17.63;;;12.90;;
28266;SDS011;15525;45.568;5.448;2023-05-24T13:51:36;15.65;;;12.52;;
28266;SDS011;15525;45.568;5.448;2023-05-24T13:54:02;16.00;;;12.77;;
28266;SDS011;15525;45.568;5.448;2023-05-24T13:56:28;17.23;;;12.75;;
28266;SDS011;15525;45.568;5.448;2023-05-24T13:58:56;17.88;;;13.23;;
28266;SDS011;15525;45.568;5.448;2023-05-24T14:01:23;17.65;;;13.07;;
28266;SDS011;15525;45.568;5.448;2023-05-24T14:03:49;16.75;;;12.73;;
28266;SDS011;15525;45.568;5.448;2023-05-24T14:06:16;19.70;;;13.48;;
28266;SDS011;15525;45.568;5.448;2023-05-24T14:08:41;18.50;;;12.65;;
28266;SDS011;15525;45.568;5.448;2023-05-24T14:11:07;15.35;;;12.43;;
28266;SDS011;15525;45.568;5.448;2023-05-24T14:13:32;21.15;;;12.60;;
28266;SDS011;15525;45.568;5.448;2023-05-24T14:15:58;16.17;;;12.45;;
28266;SDS011;15525;45.568;5.448;2023-05-24T14:18:24;21.63;;;12.80;;
28266;SDS011;15525;45.568;5.448;2023-05-24T14:20:49;19.00;;;12.32;;
28266;SDS011;15525;45.568;5.448;2023-05-24T14:23:15;17.35;;;12.98;;
28266;SDS011;15525;45.568;5.448;2023-05-24T14:25:40;19.20;;;14.05;;
28266;SDS011;15525;45.568;5.448;2023-05-24T14:28:06;18.65;;;13.43;;
28266;SDS011;15525;45.568;5.448;2023-05-24T14:30:32;18.52;;;12.80;;
28266;SDS011;15525;45.568;5.448;2023-05-24T14:32:58;17.30;;;12.93;;
28266;SDS011;15525;45.568;5.448;2023-05-24T14:35:25;18.90;;;13.65;;
28266;SDS011;15525;45.568;5.448;2023-05-24T14:37:50;17.15;;;13.30;;
28266;SDS011;15525;45.568;5.448;2023-05-24T14:40:17;17.75;;;13.25;;